Time;durP1;ratioP1;P1;durP2;ratioP2;P2;SDS_P1;SDS_P2;PMS_P1;PMS_P2;Temp;Humidity;BMP_temperature;BMP_pressure;BME280_temperature;BME280_humidity;BME280_pressure;Samples;Min_cycle;Max_cycle;Signal;HPM_P1;HPM_P2
2023/04/17 00:00:16;;;;;;;19.70;11.60;;;;;;;10.81;66.68;101176.26;104788;1259;64619;-56
2023/04/17 00:02:45;;;;;;;14.30;11.70;;;;;;;10.79;66.71;101173.42;104711;1259;60491;-55
2023/04/17 00:05:15;;;;;;;17.30;12.20;;;;;;;10.76;66.83;101164.99;108122;1259;60803;-56
2023/04/17 00:07:45;;;;;;;13.20;10.50;;;;;;;10.81;66.73;101168.16;108157;1259;66117;-56
2023/04/17 00:10:13;;;;;;;14.50;10.90;;;;;;;10.87;66.58;101166.55;108110;1259;63615;-56
2023/04/17 00:12:41;;;;;;;16.50;11.20;;;;;;;10.91;66.54;101174.35;108140;1258;67664;-56
2023/04/17 00:15:10;;;;;;;18.60;11.50;;;;;;;10.92;66.64;101174.79;108194;1259;58820;-56
2023/04/17 00:17:38;;;;;;;15.50;11.30;;;;;;;10.94;66.70;101173.79;108149;1259;59583;-56
2023/04/17 00:20:10;;;;;;;14.90;11.60;;;;;;;10.97;66.65;101173.78;108189;1259;66719;-56
2023/04/17 00:22:38;;;;;;;18.90;12.10;;;;;;;11.00;66.56;101173.55;108134;1257;62720;-56
2023/04/17 00:25:09;;;;;;;16.60;11.70;;;;;;;11.01;66.40;101171.71;108127;1261;64747;-56
2023/04/17 00:27:37;;;;;;;17.20;11.50;;;;;;;11.04;66.27;101169.95;108185;1257;62232;-56
2023/04/17 00:30:06;;;;;;;13.10;9.90;;;;;;;11.07;66.13;101169.75;108206;1259;59091;-56
2023/04/17 00:32:36;;;;;;;13.30;10.10;;;;;;;11.10;66.08;101174.46;108275;1257;65175;-56
2023/04/17 00:35:05;;;;;;;12.90;9.90;;;;;;;11.11;66.17;101175.06;108222;1257;62828;-56
2023/04/17 00:37:35;;;;;;;13.40;10.80;;;;;;;11.12;66.15;101174.15;108120;1258;64053;-56
2023/04/17 00:40:03;;;;;;;20.60;11.30;;;;;;;11.14;66.17;101174.19;108160;1257;60927;-56
2023/04/17 00:42:32;;;;;;;14.00;11.00;;;;;;;11.14;66.17;101177.02;105183;1258;60612;-55
2023/04/17 00:45:00;;;;;;;14.50;10.20;;;;;;;11.13;66.13;101173.92;104781;1259;70049;-56
2023/04/17 00:47:29;;;;;;;13.20;9.50;;;;;;;11.18;65.94;101177.05;104722;1257;62590;-55
2023/04/17 00:49:57;;;;;;;16.90;10.50;;;;;;;11.24;65.92;101171.55;108092;1259;64057;-56
2023/04/17 00:52:28;;;;;;;15.40;10.00;;;;;;;11.31;65.92;101174.75;108062;1258;61876;-56
2023/04/17 00:54:57;;;;;;;15.10;10.80;;;;;;;11.35;65.95;101174.48;108111;1257;59693;-56
2023/04/17 00:57:25;;;;;;;14.40;10.40;;;;;;;11.37;65.93;101177.67;108118;1257;66134;-56
2023/04/17 00:59:55;;;;;;;15.30;10.50;;;;;;;11.39;65.84;101175.60;108034;1258;61484;-56
2023/04/17 01:02:23;;;;;;;13.30;9.50;;;;;;;11.38;65.66;101174.10;105341;1257;65121;-55
2023/04/17 01:04:52;;;;;;;12.90;10.20;;;;;;;11.34;65.61;101173.27;108117;1259;59074;-55
2023/04/17 01:07:20;;;;;;;12.30;9.30;;;;;;;11.37;65.53;101172.20;108151;1259;60747;-56
2023/04/17 01:09:48;;;;;;;14.90;9.50;;;;;;;11.42;65.48;101171.86;108082;1256;65905;-56
2023/04/17 01:12:21;;;;;;;13.10;10.00;;;;;;;11.47;65.35;101171.86;108204;1259;62307;-56
2023/04/17 01:14:50;;;;;;;15.30;10.00;;;;;;;11.50;65.41;101171.13;108218;1257;64856;-56
2023/04/17 01:17:19;;;;;;;17.80;10.60;;;;;;;11.52;65.35;101167.61;108128;1258;59335;-56
2023/04/17 01:19:48;;;;;;;13.90;9.70;;;;;;;11.52;65.39;101167.08;108107;1259;59513;-56
2023/04/17 01:22:16;;;;;;;14.00;9.20;;;;;;;11.52;65.39;101168.00;108207;1258;66888;-56
2023/04/17 01:24:44;;;;;;;12.80;8.20;;;;;;;11.50;65.39;101164.42;108104;1258;64622;-56
2023/04/17 01:27:13;;;;;;;16.70;8.70;;;;;;;11.55;65.36;101163.39;108093;1259;64546;-56
2023/04/17 01:29:43;;;;;;;11.40;7.90;;;;;;;11.62;65.26;101168.30;106345;1262;60750;-55
2023/04/17 01:32:11;;;;;;;13.30;9.10;;;;;;;11.68;65.20;101165.92;104511;1260;60668;-56
2023/04/17 01:34:40;;;;;;;12.40;8.90;;;;;;;11.72;65.09;101164.24;104737;1262;66345;-56
2023/04/17 01:37:08;;;;;;;12.30;9.40;;;;;;;11.74;64.91;101169.44;104809;1258;62382;-56
2023/04/17 01:39:37;;;;;;;15.00;9.30;;;;;;;11.73;64.81;101171.39;107287;1262;64871;-56
2023/04/17 01:42:05;;;;;;;13.60;9.80;;;;;;;11.69;64.77;101173.22;104760;1262;60567;-57
2023/04/17 01:44:36;;;;;;;15.50;9.70;;;;;;;11.63;64.68;101168.58;104520;1264;60060;-56
2023/04/17 01:47:04;;;;;;;13.60;9.10;;;;;;;11.56;64.62;101170.50;108190;1257;66760;-56
2023/04/17 01:49:33;;;;;;;14.30;9.60;;;;;;;11.55;64.52;101169.91;107908;1257;61454;-56
2023/04/17 01:52:01;;;;;;;15.40;9.80;;;;;;;11.52;64.51;101171.27;104655;1264;65151;-56
2023/04/17 01:54:30;;;;;;;11.50;12.00;;;;;;;11.52;64.68;101168.52;107363;1259;60273;-56
2023/04/17 01:56:58;;;;;;;12.50;9.30;;;;;;;11.51;64.76;101163.64;104747;1262;60465;-56
2023/04/17 01:59:27;;;;;;;11.00;9.10;;;;;;;11.50;64.98;101166.23;104655;1258;66164;-56
2023/04/17 02:01:56;;;;;;;13.90;10.00;;;;;;;11.49;65.12;101168.59;108044;1259;62565;-56
2023/04/17 02:04:24;;;;;;;15.30;10.30;;;;;;;11.50;65.22;101171.85;108062;1258;65150;-56
2023/04/17 02:06:53;;;;;;;13.30;9.50;;;;;;;11.49;65.26;101172.60;108042;1262;59483;-56
2023/04/17 02:09:21;;;;;;;14.20;9.40;;;;;;;11.53;65.06;101170.58;108227;1259;60379;-56
2023/04/17 02:11:49;;;;;;;14.60;9.40;;;;;;;11.61;64.90;101169.45;108121;1257;66016;-55
2023/04/17 02:14:19;;;;;;;12.20;9.20;;;;;;;11.62;65.04;101168.70;108108;1259;63743;-55
2023/04/17 02:16:47;;;;;;;12.90;9.40;;;;;;;11.63;65.03;101171.92;108073;1257;64042;-55
2023/04/17 02:19:15;;;;;;;13.30;9.60;;;;;;;11.64;64.96;101169.45;105682;1259;61223;-54
2023/04/17 02:21:44;;;;;;;14.60;9.60;;;;;;;11.64;64.87;101170.65;108147;1258;61636;-55
2023/04/17 02:24:12;;;;;;;12.30;9.70;;;;;;;11.62;64.64;101173.27;108102;1257;73717;-55
2023/04/17 02:26:40;;;;;;;13.00;9.50;;;;;;;11.59;64.67;101175.60;108093;1257;62986;-55
2023/04/17 02:29:08;;;;;;;16.10;8.20;;;;;;;11.61;64.59;101177.38;108136;1261;65052;-56
2023/04/17 02:31:39;;;;;;;13.00;8.60;;;;;;;11.62;64.36;101182.58;108148;1259;58680;-56
2023/04/17 02:34:07;;;;;;;14.00;9.30;;;;;;;11.63;64.38;101183.38;105921;1259;62023;-56
2023/04/17 02:36:36;;;;;;;12.40;9.20;;;;;;;11.63;64.46;101187.06;108188;1256;68829;-56
2023/04/17 02:39:04;;;;;;;12.90;9.20;;;;;;;11.66;64.42;101186.26;108086;1259;64205;-56
2023/04/17 02:41:32;;;;;;;12.30;8.80;;;;;;;11.70;64.59;101188.47;108137;1259;65057;-56
2023/04/17 02:44:01;;;;;;;16.10;10.80;;;;;;;11.73;64.33;101189.88;108278;1259;58592;-56
2023/04/17 02:46:30;;;;;;;13.90;10.20;;;;;;;11.66;64.35;101192.96;107232;1263;60598;-56
2023/04/17 02:48:58;;;;;;;12.70;9.10;;;;;;;11.62;64.56;101189.59;103390;1262;66400;-55
2023/04/17 02:51:26;;;;;;;12.20;8.10;;;;;;;11.63;64.41;101191.27;104518;1256;61538;-55
2023/04/17 02:53:54;;;;;;;12.90;8.60;;;;;;;11.63;64.29;101190.23;107351;1258;65452;-56
2023/04/17 02:56:23;;;;;;;15.50;9.10;;;;;;;11.65;64.46;101189.34;108062;1257;60469;-56
2023/04/17 02:58:51;;;;;;;14.10;8.50;;;;;;;11.68;64.52;101196.36;108053;1257;59872;-56
2023/04/17 03:01:20;;;;;;;12.60;9.30;;;;;;;11.69;64.51;101196.61;108133;1259;65857;-56
2023/04/17 03:03:51;;;;;;;14.40;9.10;;;;;;;11.68;64.39;101198.63;108082;1262;62955;-56
2023/04/17 03:06:20;;;;;;;13.80;9.30;;;;;;;11.69;64.47;101197.66;108085;1259;66879;-56
2023/04/17 03:08:48;;;;;;;15.60;9.50;;;;;;;11.72;64.36;101196.80;108169;1262;59943;-56
2023/04/17 03:11:18;;;;;;;10.70;8.10;;;;;;;11.73;64.22;101196.73;108067;1258;59028;-56
2023/04/17 03:13:46;;;;;;;12.90;8.50;;;;;;;11.75;63.82;101196.63;107911;1262;66314;-56
2023/04/17 03:16:14;;;;;;;11.90;7.90;;;;;;;11.74;63.69;101202.95;104725;1259;62138;-56
2023/04/17 03:18:43;;;;;;;11.50;8.00;;;;;;;11.75;63.82;101204.49;104643;1263;64719;-55
2023/04/17 03:21:11;;;;;;;16.50;8.60;;;;;;;11.74;63.95;101209.11;108130;1262;59076;-56
2023/04/17 03:23:40;;;;;;;11.00;8.60;;;;;;;11.76;64.02;101212.33;108054;1259;59066;-56
2023/04/17 03:26:08;;;;;;;12.00;8.10;;;;;;;11.77;63.92;101213.33;107215;1263;66272;-56
2023/04/17 03:28:37;;;;;;;11.80;8.30;;;;;;;11.74;63.93;101217.02;108174;1259;62285;-56
2023/04/17 03:31:05;;;;;;;10.80;7.60;;;;;;;11.69;63.87;101217.92;107394;1262;64924;-56
2023/04/17 03:33:36;;;;;;;11.00;7.60;;;;;;;11.65;64.01;101217.66;107284;1259;60486;-55
2023/04/17 03:36:05;;;;;;;10.80;7.20;;;;;;;11.66;63.88;101216.52;108184;1258;58846;-56
2023/04/17 03:38:34;;;;;;;11.70;6.90;;;;;;;11.73;63.75;101215.70;108105;1263;67215;-56
2023/04/17 03:41:03;;;;;;;12.20;7.50;;;;;;;11.76;63.60;101217.77;107954;1259;62545;-56
2023/04/17 03:43:31;;;;;;;10.30;7.40;;;;;;;11.77;63.48;101218.60;108131;1259;67295;-56
2023/04/17 03:46:00;;;;;;;10.70;6.40;;;;;;;11.76;63.44;101222.03;108172;1259;59352;-56
2023/04/17 03:48:29;;;;;;;12.60;6.90;;;;;;;11.74;63.19;101222.70;108122;1259;61538;-56
2023/04/17 03:50:57;;;;;;;10.90;7.30;;;;;;;11.70;63.12;101226.24;108083;1260;66144;-56
2023/04/17 03:53:26;;;;;;;10.90;7.30;;;;;;;11.66;63.00;101232.15;108116;1263;62665;-56
2023/04/17 03:55:55;;;;;;;11.00;6.80;;;;;;;11.62;63.04;101235.27;106223;1259;63782;-56
2023/04/17 03:58:27;;;;;;;11.10;5.80;;;;;;;11.64;62.80;101237.39;108101;1258;59518;-56
2023/04/17 04:00:57;;;;;;;12.40;6.90;;;;;;;11.73;62.59;101240.16;108149;1259;60393;-56
2023/04/17 04:03:28;;;;;;;12.40;7.00;;;;;;;11.77;62.56;101240.42;108110;1263;66068;-56
2023/04/17 04:05:57;;;;;;;11.90;6.90;;;;;;;11.77;62.47;101240.38;108141;1259;61721;-56
2023/04/17 04:08:25;;;;;;;12.60;6.80;;;;;;;11.79;62.20;101243.05;108071;1259;65023;-55
2023/04/17 04:10:54;;;;;;;12.20;6.40;;;;;;;11.80;61.90;101243.34;108115;1260;60252;-55
2023/04/17 04:13:28;;;;;;;9.00;6.40;;;;;;;11.79;61.76;101245.18;108123;1258;61054;-55
2023/04/17 04:15:58;;;;;;;10.30;6.70;;;;;;;11.78;61.62;101245.56;108071;1260;64886;-55
2023/04/17 04:18:27;;;;;;;10.80;6.90;;;;;;;11.78;61.40;101244.52;108071;1259;63094;-56
2023/04/17 04:20:56;;;;;;;10.20;6.10;;;;;;;11.78;61.29;101248.24;108103;1256;64950;-56
2023/04/17 04:23:29;;;;;;;9.70;6.00;;;;;;;11.81;61.12;101250.27;108030;1260;60262;-56
2023/04/17 04:26:00;;;;;;;11.10;6.80;;;;;;;11.85;60.84;101252.48;108021;1262;59755;-56
2023/04/17 04:28:37;;;;;;;8.80;5.90;;;;;;;11.85;60.69;101253.46;108058;1257;66359;-56
2023/04/17 04:31:08;;;;;;;14.90;7.10;;;;;;;11.87;60.85;101256.67;108010;1262;62007;-56
2023/04/17 04:33:39;;;;;;;10.10;6.10;;;;;;;11.89;60.69;101252.50;108216;1258;65170;-56
2023/04/17 04:36:07;;;;;;;13.90;6.90;;;;;;;11.91;60.43;101253.46;108096;1259;58490;-56
2023/04/17 04:38:36;;;;;;;11.70;6.70;;;;;;;11.90;60.36;101255.65;108049;1259;59857;-57
2023/04/17 04:41:10;;;;;;;13.20;7.20;;;;;;;11.87;60.34;101258.83;108063;1262;66277;-56
2023/04/17 04:43:39;;;;;;;10.70;6.20;;;;;;;11.85;60.27;101261.42;108179;1259;62625;-56
2023/04/17 04:46:09;;;;;;;9.80;6.50;;;;;;;11.83;60.18;101258.42;108102;1262;65293;-56
2023/04/17 04:48:40;;;;;;;12.60;6.60;;;;;;;11.80;59.97;101259.66;108099;1259;59044;-56
2023/04/17 04:51:10;;;;;;;10.60;6.50;;;;;;;11.80;60.03;101259.84;108085;1258;59655;-56
2023/04/17 04:53:38;;;;;;;8.20;5.30;;;;;;;11.87;59.89;101259.34;108057;1265;68137;-56
2023/04/17 04:56:06;;;;;;;10.70;5.60;;;;;;;11.91;59.79;101261.52;108142;1259;64853;-56
2023/04/17 04:58:37;;;;;;;9.60;6.00;;;;;;;11.93;59.68;101260.71;108091;1258;64304;-56
2023/04/17 05:01:06;;;;;;;12.70;6.30;;;;;;;11.92;59.38;101259.90;108084;1264;60050;-56
2023/04/17 05:03:39;;;;;;;11.10;6.70;;;;;;;11.93;59.48;101260.52;108164;1262;59711;-56
2023/04/17 05:06:10;;;;;;;11.20;5.40;;;;;;;11.96;59.45;101265.63;108101;1265;65921;-56
2023/04/17 05:08:40;;;;;;;11.80;5.80;;;;;;;11.98;59.11;101265.64;108117;1259;62371;-56
2023/04/17 05:11:10;;;;;;;12.00;6.00;;;;;;;11.99;58.62;101270.52;108138;1257;64980;-56
2023/04/17 05:13:39;;;;;;;8.80;5.20;;;;;;;11.98;58.34;101273.58;108074;1257;61428;-56
2023/04/17 05:16:12;;;;;;;8.90;4.80;;;;;;;11.97;57.99;101279.91;108155;1263;60988;-56
2023/04/17 05:18:40;;;;;;;9.10;5.00;;;;;;;11.97;57.80;101285.19;108157;1257;65960;-56
2023/04/17 05:21:09;;;;;;;8.70;4.80;;;;;;;11.99;57.49;101286.15;108064;1260;61355;-56
2023/04/17 05:23:38;;;;;;;7.70;4.40;;;;;;;12.01;57.15;101284.95;108189;1259;64246;-56
2023/04/17 05:26:06;;;;;;;10.00;5.40;;;;;;;12.00;56.84;101288.50;108033;1258;59100;-56
2023/04/17 05:28:34;;;;;;;9.80;5.00;;;;;;;12.01;56.45;101287.20;106684;1259;59679;-56
2023/04/17 05:31:03;;;;;;;7.90;4.70;;;;;;;12.05;55.93;101287.65;104680;1265;66218;-54
2023/04/17 05:33:35;;;;;;;7.90;4.20;;;;;;;12.07;55.68;101289.56;108119;1260;62420;-56
2023/04/17 05:36:06;;;;;;;11.10;5.40;;;;;;;12.10;55.42;101287.98;108222;1260;63844;-56
2023/04/17 05:38:36;;;;;;;10.50;5.00;;;;;;;12.12;55.16;101293.16;108239;1259;59908;-56
2023/04/17 05:41:07;;;;;;;8.60;4.80;;;;;;;12.15;55.15;101295.55;108132;1256;59687;-56
2023/04/17 05:43:37;;;;;;;8.30;4.40;;;;;;;12.19;55.12;101297.54;108001;1259;64934;-56
2023/04/17 05:46:06;;;;;;;8.60;4.90;;;;;;;12.23;55.28;101297.62;103540;1260;61605;-57
2023/04/17 05:48:34;;;;;;;10.00;4.60;;;;;;;12.23;55.03;101301.33;103292;1259;65841;-55
2023/04/17 05:51:03;;;;;;;7.10;3.90;;;;;;;12.22;54.92;101300.64;104280;1259;60462;-55
2023/04/17 05:53:32;;;;;;;6.90;4.30;;;;;;;12.25;54.65;101300.43;108029;1259;59714;-56
2023/04/17 05:56:02;;;;;;;7.80;3.70;;;;;;;12.27;54.59;101299.25;108087;1259;65961;-56
2023/04/17 05:58:34;;;;;;;7.30;4.10;;;;;;;12.30;53.88;101297.86;108088;1257;61378;-56
2023/04/17 06:01:05;;;;;;;8.60;4.20;;;;;;;12.32;53.29;101297.66;108095;1259;64189;-56
2023/04/17 06:03:33;;;;;;;10.40;4.40;;;;;;;12.31;52.72;101299.35;106734;1260;60651;-55
2023/04/17 06:06:07;;;;;;;7.00;4.00;;;;;;;12.27;52.46;101297.80;108141;1262;58629;-55
2023/04/17 06:08:36;;;;;;;7.70;4.00;;;;;;;12.23;52.32;101298.98;108081;1257;65693;-56
2023/04/17 06:11:05;;;;;;;7.20;3.70;;;;;;;12.20;52.09;101301.15;108550;1258;62847;-56
2023/04/17 06:13:33;;;;;;;8.10;4.40;;;;;;;12.17;52.01;101302.96;108487;1253;64009;-57
2023/04/17 06:16:01;;;;;;;7.30;4.00;;;;;;;12.18;51.95;101301.81;108376;1253;58513;-56
2023/04/17 06:18:30;;;;;;;8.00;4.40;;;;;;;12.23;51.93;101301.66;108576;1254;59109;-56
2023/04/17 06:20:58;;;;;;;9.50;4.90;;;;;;;12.23;52.00;101300.77;108474;1254;66557;-56
2023/04/17 06:23:27;;;;;;;7.50;4.50;;;;;;;12.24;51.83;101301.95;108437;1253;63214;-56
2023/04/17 06:25:56;;;;;;;12.10;4.40;;;;;;;12.25;51.89;101306.63;108565;1253;63716;-56
2023/04/17 06:28:24;;;;;;;10.40;4.80;;;;;;;12.25;52.18;101309.56;108527;1253;59313;-56
2023/04/17 06:30:53;;;;;;;9.10;4.60;;;;;;;12.26;52.10;101308.12;108387;1253;59014;-56
2023/04/17 06:33:22;;;;;;;9.20;4.60;;;;;;;12.24;51.95;101309.11;108425;1254;64886;-56
2023/04/17 06:35:53;;;;;;;8.90;4.40;;;;;;;12.28;51.93;101310.58;108453;1253;64723;-57
2023/04/17 06:38:37;;;;;;;8.40;4.50;;;;;;;12.31;51.87;101313.39;108383;1253;63518;-56
2023/04/17 06:41:05;;;;;;;9.60;5.40;;;;;;;12.31;51.66;101314.80;108448;1258;59091;-56
2023/04/17 06:43:34;;;;;;;7.80;4.40;;;;;;;12.29;51.69;101313.52;108427;1259;59520;-56
2023/04/17 06:46:11;;;;;;;8.00;3.80;;;;;;;12.29;51.95;101319.89;106705;1259;66234;-56
2023/04/17 06:48:40;;;;;;;9.10;4.30;;;;;;;12.29;51.94;101319.85;105459;1253;62985;-56
2023/04/17 06:51:08;;;;;;;7.40;4.80;;;;;;;12.30;51.89;101322.76;108168;1253;65022;-56
2023/04/17 06:53:36;;;;;;;7.60;4.90;;;;;;;12.32;52.15;101327.91;108292;1256;62094;-56
2023/04/17 06:56:05;;;;;;;7.90;4.40;;;;;;;12.34;52.10;101327.79;108560;1255;59388;-56
2023/04/17 06:58:41;;;;;;;9.50;4.70;;;;;;;12.35;51.80;101328.95;108551;1256;65985;-56
2023/04/17 07:01:10;;;;;;;;;;;;;;;12.36;51.62;101330.83;108625;1253;61397;-56
2023/04/17 07:03:41;;;;;;;10.00;4.60;;;;;;;12.36;51.72;101331.14;108488;1258;64943;-56
2023/04/17 07:06:10;;;;;;;8.10;5.10;;;;;;;12.36;51.79;101332.54;108458;1253;59791;-56
2023/04/17 07:08:38;;;;;;;9.20;5.20;;;;;;;12.39;51.92;101330.94;108502;1253;59025;-56
2023/04/17 07:11:07;;;;;;;10.10;5.60;;;;;;;12.40;51.46;101330.32;108497;1256;65341;-56
2023/04/17 07:13:35;;;;;;;8.30;4.50;;;;;;;12.42;51.44;101333.36;108545;1253;61484;-56
2023/04/17 07:16:04;;;;;;;8.20;4.90;;;;;;;12.47;51.59;101331.39;108463;1256;65037;-56
2023/04/17 07:18:33;;;;;;;8.20;4.90;;;;;;;12.57;51.37;101334.90;108470;1258;59888;-56
2023/04/17 07:21:02;;;;;;;9.80;5.40;;;;;;;12.66;50.79;101332.63;108563;1258;59184;-56
2023/04/17 07:23:30;;;;;;;12.10;5.30;;;;;;;12.60;50.72;101333.46;107216;1258;68389;-56
2023/04/17 07:25:58;;;;;;;8.90;5.00;;;;;;;12.56;50.31;101336.52;108480;1253;62979;-56
2023/04/17 07:28:26;;;;;;;9.00;5.70;;;;;;;12.57;50.11;101332.63;108479;1256;64972;-56
2023/04/17 07:30:56;;;;;;;8.50;5.40;;;;;;;12.59;50.03;101333.56;108527;1253;59175;-56
2023/04/17 07:33:25;;;;;;;10.50;5.80;;;;;;;12.63;50.10;101334.66;108506;1253;60763;-56
2023/04/17 07:35:53;;;;;;;8.80;5.30;;;;;;;12.69;50.10;101334.20;108553;1253;66659;-56
2023/04/17 07:38:22;;;;;;;9.50;4.80;;;;;;;12.75;49.93;101332.89;108458;1253;61620;-56
2023/04/17 07:40:50;;;;;;;11.10;5.30;;;;;;;12.82;49.78;101331.67;108442;1258;63800;-56
2023/04/17 07:43:19;;;;;;;9.90;5.50;;;;;;;12.91;49.72;101328.75;108350;1253;232518;-56
2023/04/17 07:47:43;;;;;;;8.30;4.90;;;;;;;12.77;49.52;101330.41;102056;1290;602733;-57
2023/04/17 07:50:11;;;;;;;11.40;5.50;;;;;;;12.97;49.29;101325.05;104396;1267;61346;-57
2023/04/17 07:52:39;;;;;;;10.00;5.00;;;;;;;13.05;48.77;101325.36;105560;1263;59202;-57
2023/04/17 07:55:08;;;;;;;9.80;5.10;;;;;;;13.18;48.52;101328.99;103209;1269;64997;-57
2023/04/17 07:57:41;;;;;;;9.80;5.00;;;;;;;13.28;47.88;101325.59;108339;1258;62703;-55
2023/04/17 08:00:12;;;;;;;7.70;4.30;;;;;;;13.37;47.46;101323.85;108163;1257;194594;-56
2023/04/17 08:02:42;;;;;;;9.40;4.50;;;;;;;13.45;47.47;101321.96;108614;1254;57467;-56
2023/04/17 08:05:10;;;;;;;8.70;4.70;;;;;;;13.56;47.07;101318.73;108527;1254;59828;-56
2023/04/17 08:07:39;;;;;;;7.60;4.10;;;;;;;13.63;46.44;101316.39;108526;1253;63576;-56
2023/04/17 08:10:08;;;;;;;9.50;3.80;;;;;;;13.67;46.34;101316.75;108601;1254;62193;-56
2023/04/17 08:12:36;;;;;;;11.20;4.10;;;;;;;13.75;46.32;101318.40;108640;1254;64676;-56
2023/04/17 08:15:05;;;;;;;8.70;3.50;;;;;;;13.84;45.88;101314.04;108551;1258;59166;-56
2023/04/17 08:17:34;;;;;;;6.40;3.40;;;;;;;13.90;45.59;101309.48;108603;1257;58204;-56
2023/04/17 08:20:10;;;;;;;7.90;3.70;;;;;;;13.98;45.57;101308.88;108602;1254;66345;-56
2023/04/17 08:22:39;;;;;;;10.90;3.40;;;;;;;14.08;45.04;101309.65;108527;1254;61828;-56
2023/04/17 08:25:08;;;;;;;9.10;3.70;;;;;;;14.07;44.26;101304.79;108550;1254;63690;-57
2023/04/17 08:27:40;;;;;;;7.10;3.10;;;;;;;14.03;44.16;101301.41;108587;1254;58400;-56
2023/04/17 08:30:10;;;;;;;7.60;3.60;;;;;;;14.06;43.95;101302.94;108574;1254;58530;-56
2023/04/17 08:32:44;;;;;;;7.30;3.30;;;;;;;14.06;43.68;101298.38;108610;1254;65467;-57
2023/04/17 08:35:13;;;;;;;8.30;3.40;;;;;;;14.06;43.75;101295.86;108682;1253;62744;-56
2023/04/17 08:37:41;;;;;;;7.50;3.30;;;;;;;14.08;43.75;101298.76;105515;1258;64722;-56
2023/04/17 08:40:11;;;;;;;7.20;2.80;;;;;;;14.10;43.63;101302.25;106634;1254;59547;-56
2023/04/17 08:42:43;;;;;;;12.00;3.00;;;;;;;14.14;43.24;101301.80;108674;1253;59460;-57
2023/04/17 08:45:12;;;;;;;7.20;3.10;;;;;;;14.17;43.02;101301.58;108563;1254;65072;-57
2023/04/17 08:47:41;;;;;;;6.30;3.00;;;;;;;14.20;42.49;101298.13;108637;1253;62699;-56
2023/04/17 08:50:13;;;;;;;7.80;2.60;;;;;;;14.25;42.26;101297.51;108447;1254;66203;-56
2023/04/17 08:52:51;;;;;;;6.00;3.00;;;;;;;14.27;42.31;101300.23;108584;1257;57915;-56
2023/04/17 08:55:21;;;;;;;7.10;3.20;;;;;;;14.27;42.56;101300.90;108629;1254;58260;-56
2023/04/17 08:57:55;;;;;;;5.90;2.90;;;;;;;14.34;42.15;101299.33;108095;1254;64182;-57
2023/04/17 09:00:25;;;;;;;6.50;3.40;;;;;;;14.41;42.09;101301.23;108549;1254;73297;-56
2023/04/17 09:02:54;;;;;;;7.30;3.20;;;;;;;14.48;41.98;101304.16;108503;1254;63673;-57
2023/04/17 09:05:23;;;;;;;9.00;3.10;;;;;;;14.57;42.27;101304.31;108554;1254;59205;-57
2023/04/17 09:08:11;;;;;;;6.20;2.90;;;;;;;14.66;42.46;101302.65;108501;1254;58595;-57
2023/04/17 09:10:44;;;;;;;5.90;3.00;;;;;;;14.78;42.55;101294.34;108562;1254;65100;-56
2023/04/17 09:13:13;;;;;;;5.90;3.00;;;;;;;14.91;42.36;101289.20;107590;1254;62674;-56
2023/04/17 09:15:42;;;;;;;6.70;3.00;;;;;;;15.04;42.02;101286.27;108475;1254;65549;-56
2023/04/17 09:18:21;;;;;;;7.50;3.30;;;;;;;15.14;41.43;101282.42;108587;1256;58006;-57
2023/04/17 09:20:50;;;;;;;9.00;3.10;;;;;;;15.19;41.34;101281.84;108577;1254;58695;-57
2023/04/17 09:23:18;;;;;;;5.90;3.10;;;;;;;15.23;41.82;101282.20;108539;1255;64175;-57
2023/04/17 09:25:49;;;;;;;6.50;2.90;;;;;;;15.27;41.81;101276.58;108577;1255;62827;-57
2023/04/17 09:28:18;;;;;;;5.50;2.40;;;;;;;15.34;41.88;101274.16;108355;1260;65016;-57
2023/04/17 09:30:46;;;;;;;8.00;2.60;;;;;;;15.44;41.82;101270.83;108534;1254;58190;-56
2023/04/17 09:33:15;;;;;;;5.40;2.30;;;;;;;15.58;41.64;101269.31;106104;1254;59754;-57
2023/04/17 09:35:43;;;;;;;8.30;3.10;;;;;;;15.65;41.29;101270.27;105018;1254;67931;-56
2023/04/17 09:38:11;;;;;;;6.90;2.90;;;;;;;15.71;41.39;101269.00;105117;1257;62020;-56
2023/04/17 09:40:40;;;;;;;7.70;3.20;;;;;;;15.80;41.06;101267.08;104976;1258;65756;-57
2023/04/17 09:43:09;;;;;;;9.20;2.70;;;;;;;15.88;41.22;101266.54;108537;1254;59161;-57
2023/04/17 09:45:40;;;;;;;5.90;2.70;;;;;;;15.97;41.23;101264.20;108573;1254;59243;-57
2023/04/17 09:48:12;;;;;;;6.10;2.60;;;;;;;16.01;41.58;101266.27;108555;1254;64070;-57
2023/04/17 09:50:40;;;;;;;8.60;2.90;;;;;;;16.06;41.32;101265.13;108589;1255;62445;-57
2023/04/17 09:53:08;;;;;;;8.40;3.00;;;;;;;16.07;40.93;101264.15;105423;1254;64845;-57
2023/04/17 09:55:37;;;;;;;5.70;2.80;;;;;;;16.05;41.38;101263.10;103870;1256;59553;-57
2023/04/17 09:58:06;;;;;;;7.50;3.00;;;;;;;16.01;42.05;101259.89;104560;1254;61883;-57
2023/04/17 10:00:35;;;;;;;9.60;3.40;;;;;;;15.98;42.00;101261.16;108328;1254;65270;-57
2023/04/17 10:03:04;;;;;;;6.10;2.70;;;;;;;15.96;41.65;101256.95;107731;1255;61642;-57
2023/04/17 10:05:33;;;;;;;7.40;3.10;;;;;;;15.89;41.93;101257.05;108237;1259;65005;-57
2023/04/17 10:08:01;;;;;;;7.60;3.30;;;;;;;15.86;42.11;101258.77;108266;1254;58065;-57
2023/04/17 10:10:32;;;;;;;8.70;3.70;;;;;;;15.84;42.23;101260.16;108562;1254;58736;-57
2023/04/17 10:13:02;;;;;;;7.00;2.90;;;;;;;15.80;41.90;101259.23;108554;1254;68684;-57
2023/04/17 10:15:30;;;;;;;7.80;3.30;;;;;;;15.72;41.82;101258.14;108270;1261;62322;-57
2023/04/17 10:18:18;;;;;;;8.70;2.80;;;;;;;15.62;41.59;101261.52;108338;1254;63866;-57
2023/04/17 10:20:47;;;;;;;7.20;3.50;;;;;;;15.53;42.31;101262.70;107415;1255;59752;-57
2023/04/17 10:23:27;;;;;;;12.60;3.60;;;;;;;15.49;42.48;101258.62;108506;1257;60199;-57
2023/04/17 10:26:23;;;;;;;7.70;3.10;;;;;;;15.51;42.32;101257.20;106406;1257;66833;-57
2023/04/17 10:28:52;;;;;;;8.70;3.60;;;;;;;15.53;42.66;101254.36;108453;1254;63685;-57
2023/04/17 10:31:22;;;;;;;11.60;3.00;;;;;;;15.59;42.63;101248.67;108504;1254;63802;-56
2023/04/17 10:33:52;;;;;;;6.20;3.30;;;;;;;15.63;42.58;101245.58;108709;1254;58521;-56
2023/04/17 10:36:49;;;;;;;5.70;2.90;;;;;;;15.65;42.68;101243.26;105883;1254;59659;-55
2023/04/17 10:39:18;;;;;;;6.50;3.20;;;;;;;15.66;42.77;101244.16;108510;1254;65977;-56
2023/04/17 10:42:01;;;;;;;9.90;3.30;;;;;;;15.71;42.44;101240.94;108478;1254;62394;-56
2023/04/17 10:44:39;;;;;;;6.90;3.50;;;;;;;15.73;42.72;101240.23;108448;1254;65563;-57
2023/04/17 10:47:08;;;;;;;7.80;3.10;;;;;;;15.77;42.97;101244.33;106164;1254;60017;-56
2023/04/17 10:49:49;;;;;;;7.20;3.10;;;;;;;15.82;42.79;101243.75;108595;1254;57965;-56
2023/04/17 10:52:33;;;;;;;7.70;3.30;;;;;;;15.87;42.70;101243.80;108523;1254;65396;-56
2023/04/17 10:55:08;;;;;;;6.20;3.00;;;;;;;16.01;42.41;101241.29;108492;1254;62344;-56
2023/04/17 10:58:00;;;;;;;5.40;2.80;;;;;;;16.17;41.91;101239.55;106873;1257;64255;-56
2023/04/17 11:00:36;;;;;;;5.20;2.50;;;;;;;16.31;40.96;101233.70;108471;1254;58094;-56
2023/04/17 11:03:05;;;;;;;4.90;2.20;;;;;;;16.37;39.97;101229.98;108565;1254;58159;-56
2023/04/17 11:05:34;;;;;;;6.90;2.10;;;;;;;16.42;39.99;101231.11;108524;1257;64605;-57
2023/04/17 11:08:03;;;;;;;4.70;1.60;;;;;;;16.58;39.67;101229.14;108542;1254;61365;-56
2023/04/17 11:10:34;;;;;;;4.40;1.70;;;;;;;16.79;38.33;101232.13;108297;1262;64579;-57
2023/04/17 11:13:02;;;;;;;4.10;1.50;;;;;;;16.98;37.79;101230.75;108550;1256;58307;-57
2023/04/17 11:15:33;;;;;;;4.70;1.60;;;;;;;17.14;37.19;101229.42;108492;1256;59685;-56
2023/04/17 11:18:02;;;;;;;9.50;2.00;;;;;;;17.27;36.21;101224.11;108593;1254;67496;-56
2023/04/17 11:20:31;;;;;;;3.80;1.50;;;;;;;17.34;34.68;101219.36;108489;1259;63036;-56
2023/04/17 11:23:01;;;;;;;5.60;1.40;;;;;;;17.38;34.06;101220.02;108537;1254;64034;-57
2023/04/17 11:25:30;;;;;;;3.90;1.20;;;;;;;17.43;34.10;101218.64;108511;1254;59982;-57